createdAt,value
2023-05-13T00:00:18.049Z,102220.94
2023-05-13T00:02:44.512Z,102228.75
2023-05-13T00:05:10.966Z,102220.25
2023-05-13T00:07:37.506Z,102219.44
2023-05-13T00:10:04.018Z,102219.78
2023-05-13T00:12:31.170Z,102227.44
2023-05-13T00:14:57.660Z,102220.72
2023-05-13T00:17:24.194Z,102215.31
2023-05-13T00:19:50.591Z,102215.66
2023-05-13T00:22:16.993Z,102217.91
2023-05-13T00:24:43.372Z,102222.78
2023-05-13T00:27:10.142Z,102226.56
2023-05-13T00:29:36.536Z,102218.88
2023-05-13T00:32:03.284Z,102218.56
2023-05-13T00:34:29.800Z,102223.78
2023-05-13T00:36:56.266Z,102219.53
2023-05-13T00:39:22.976Z,102219.50
2023-05-13T00:41:49.393Z,102220.16
2023-05-13T00:44:15.879Z,102226.19
2023-05-13T00:46:42.440Z,102224.31
2023-05-13T00:49:08.880Z,102223.78
2023-05-13T00:51:36.409Z,102224.41
2023-05-13T00:54:02.875Z,102217.66
2023-05-13T00:56:29.349Z,102212.56
2023-05-13T00:58:55.888Z,102212.88
2023-05-13T01:01:37.096Z,102214.66
2023-05-13T01:04:35.053Z,102208.56
2023-05-13T01:07:29.579Z,102213.38
2023-05-13T01:10:18.246Z,102205.47
2023-05-13T01:12:46.854Z,102204.88
2023-05-13T01:15:22.007Z,102209.06
2023-05-13T01:18:05.822Z,102209.16
2023-05-13T01:20:33.651Z,102207.56
2023-05-13T01:23:00.125Z,102206.75
2023-05-13T01:25:26.691Z,102212.41
2023-05-13T01:27:53.620Z,102216.00
2023-05-13T01:30:20.575Z,102208.06
2023-05-13T01:32:47.879Z,102207.97
2023-05-13T01:35:14.981Z,102214.53
2023-05-13T01:37:42.314Z,102216.03
2023-05-13T01:40:20.314Z,102216.78
2023-05-13T01:42:56.154Z,102215.22
2023-05-13T01:45:22.593Z,102206.72
2023-05-13T01:47:49.045Z,102212.88
2023-05-13T01:50:15.697Z,102218.78
2023-05-13T01:52:42.146Z,102213.28
2023-05-13T01:55:09.088Z,102211.69
2023-05-13T01:57:35.544Z,102207.75
2023-05-13T02:00:02.277Z,102216.25
2023-05-13T02:02:28.811Z,102202.03
2023-05-13T02:04:55.256Z,102208.03
2023-05-13T02:07:21.674Z,102200.22
2023-05-13T02:09:48.190Z,102206.19
2023-05-13T02:12:14.699Z,102209.47
2023-05-13T02:14:41.149Z,102210.44
2023-05-13T02:17:07.593Z,102207.16
2023-05-13T02:19:34.071Z,102206.50
2023-05-13T02:22:00.538Z,102204.84
2023-05-13T02:24:27.049Z,102213.63
2023-05-13T02:26:53.800Z,102215.88
2023-05-13T02:29:20.176Z,102221.06
2023-05-13T02:31:46.651Z,102210.06
2023-05-13T02:34:13.080Z,102218.22
2023-05-13T02:36:39.578Z,102213.47
2023-05-13T02:39:05.988Z,102218.69
2023-05-13T02:41:32.470Z,102217.56
2023-05-13T02:43:58.914Z,102208.13
2023-05-13T02:46:25.713Z,102207.13
2023-05-13T02:48:52.201Z,102209.88
2023-05-13T02:51:18.649Z,102211.53
2023-05-13T02:53:45.091Z,102208.25
2023-05-13T02:56:11.493Z,102206.75
2023-05-13T02:58:37.988Z,102204.31
2023-05-13T03:01:04.459Z,102208.84
2023-05-13T03:03:31.060Z,102210.47
2023-05-13T03:05:57.679Z,102209.53
2023-05-13T03:08:24.130Z,102213.38
2023-05-13T03:10:51.354Z,102208.28
2023-05-13T03:13:17.797Z,102207.59
2023-05-13T03:15:44.689Z,102208.19
2023-05-13T03:18:11.412Z,102210.81
2023-05-13T03:20:37.806Z,102206.19
2023-05-13T03:23:04.280Z,102205.28
2023-05-13T03:25:31.346Z,102209.63
2023-05-13T03:27:57.878Z,102213.50
2023-05-13T03:30:24.331Z,102204.19
2023-05-13T03:32:50.885Z,102208.06
2023-05-13T03:35:17.493Z,102210.94
2023-05-13T03:37:43.989Z,102216.03
2023-05-13T03:40:10.878Z,102219.72
2023-05-13T03:42:37.587Z,102218.38
2023-05-13T03:45:04.339Z,102223.00
2023-05-13T03:47:30.873Z,102219.19
2023-05-13T03:49:57.328Z,102218.22
2023-05-13T03:52:23.783Z,102221.41
2023-05-13T03:54:50.233Z,102218.28
2023-05-13T03:57:16.630Z,102227.72
2023-05-13T03:59:43.071Z,102225.78
2023-05-13T04:02:09.601Z,102220.56
2023-05-13T04:04:36.097Z,102225.50
2023-05-13T04:07:02.590Z,102235.25
2023-05-13T04:09:29.040Z,102234.13
2023-05-13T04:11:55.652Z,102230.84
2023-05-13T04:14:22.159Z,102230.84
2023-05-13T04:16:48.701Z,102223.31
2023-05-13T04:19:15.271Z,102230.97
2023-05-13T04:21:41.775Z,102224.16
2023-05-13T04:24:08.274Z,102236.19
2023-05-13T04:26:34.723Z,102233.03
2023-05-13T04:29:01.160Z,102239.19
2023-05-13T04:31:27.666Z,102239.19
2023-05-13T04:33:54.142Z,102232.34
2023-05-13T04:36:20.603Z,102228.78
2023-05-13T04:38:47.007Z,102226.84
2023-05-13T04:41:13.393Z,102233.72
2023-05-13T04:43:39.839Z,102232.19
2023-05-13T04:46:06.338Z,102237.38
2023-05-13T04:48:32.791Z,102239.16
2023-05-13T04:50:59.661Z,102243.25
2023-05-13T04:53:26.674Z,102251.47
2023-05-13T04:55:57.175Z,102241.88
2023-05-13T04:58:24.836Z,102246.22
2023-05-13T05:00:51.323Z,102250.16
2023-05-13T05:03:17.799Z,102252.34
2023-05-13T05:05:44.281Z,102255.47
2023-05-13T05:08:10.742Z,102260.38
2023-05-13T05:10:37.163Z,102254.91
2023-05-13T05:13:03.601Z,102263.94
2023-05-13T05:15:29.998Z,102264.31
2023-05-13T05:17:57.041Z,102267.97
2023-05-13T05:20:24.404Z,102266.44
2023-05-13T05:22:50.921Z,102264.63
2023-05-13T05:25:17.384Z,102272.03
2023-05-13T05:27:43.811Z,102258.84
2023-05-13T05:30:10.867Z,102268.41
2023-05-13T05:32:37.442Z,102267.78
2023-05-13T05:35:04.264Z,102270.63
2023-05-13T05:37:30.794Z,102263.34
2023-05-13T05:39:57.272Z,102275.63
2023-05-13T05:42:23.672Z,102269.38
2023-05-13T05:44:50.177Z,102275.16
2023-05-13T05:47:16.567Z,102276.88
2023-05-13T05:49:42.973Z,102278.72
2023-05-13T05:52:11.118Z,102276.63
2023-05-13T05:54:37.625Z,102268.84
2023-05-13T05:57:04.486Z,102276.78
2023-05-13T05:59:31.006Z,102260.97
2023-05-13T06:01:57.473Z,102276.66
2023-05-13T06:04:24.794Z,102275.38
2023-05-13T06:06:51.354Z,102280.03
2023-05-13T06:09:17.864Z,102275.59
2023-05-13T06:11:44.280Z,102280.66
2023-05-13T06:14:10.744Z,102283.00
2023-05-13T06:16:37.230Z,102284.03
2023-05-13T06:19:03.697Z,102286.84
2023-05-13T06:21:31.665Z,102273.94
2023-05-13T06:23:58.112Z,102269.44
2023-05-13T06:26:24.648Z,102262.91
2023-05-13T06:28:51.154Z,102266.53
2023-05-13T06:31:17.935Z,102267.00
2023-05-13T06:33:44.441Z,102262.59
2023-05-13T06:36:10.952Z,102269.34
2023-05-13T06:38:37.512Z,102268.88
2023-05-13T06:41:04.045Z,102274.78
2023-05-13T06:43:30.472Z,102272.34
2023-05-13T06:45:57.201Z,102265.47
2023-05-13T06:48:23.659Z,102278.44
2023-05-13T06:50:50.404Z,102265.53
2023-05-13T06:53:16.815Z,102267.50
2023-05-13T06:55:43.235Z,102281.56
2023-05-13T06:58:10.234Z,102261.13
2023-05-13T07:00:38.200Z,102274.38
2023-05-13T07:03:05.871Z,102277.97
2023-05-13T07:05:33.100Z,102270.44
2023-05-13T07:07:59.690Z,102276.75
2023-05-13T07:10:26.223Z,102270.19
2023-05-13T07:12:52.730Z,102272.50
2023-05-13T07:15:19.488Z,102275.91
2023-05-13T07:17:46.032Z,102275.72
2023-05-13T07:20:12.963Z,102272.69
2023-05-13T07:22:39.376Z,102270.13
2023-05-13T07:25:06.743Z,102259.94
2023-05-13T07:27:33.177Z,102270.34
2023-05-13T07:29:59.596Z,102269.22
2023-05-13T07:32:26.045Z,102269.38
2023-05-13T07:34:52.494Z,102269.53
2023-05-13T07:37:18.971Z,102265.63
2023-05-13T07:39:45.453Z,102270.78
2023-05-13T07:42:11.921Z,102277.28
2023-05-13T07:44:38.393Z,102283.00
2023-05-13T07:47:05.004Z,102285.94
2023-05-13T07:49:31.536Z,102279.34
2023-05-13T07:51:58.056Z,102280.28
2023-05-13T07:54:24.559Z,102280.22
2023-05-13T07:56:50.952Z,102283.03
2023-05-13T07:59:18.293Z,102287.66
2023-05-13T08:01:44.766Z,102268.91
2023-05-13T08:04:11.514Z,102277.41
2023-05-13T08:06:38.110Z,102282.81
2023-05-13T08:09:04.632Z,102274.81
2023-05-13T08:11:31.202Z,102276.97
2023-05-13T08:13:57.655Z,102273.72
2023-05-13T08:16:24.170Z,102275.31
2023-05-13T08:18:50.715Z,102268.03
2023-05-13T08:21:17.231Z,102281.25
2023-05-13T08:23:45.911Z,102274.75
2023-05-13T08:26:13.198Z,102279.09
2023-05-13T08:28:39.689Z,102282.66
2023-05-13T08:31:06.294Z,102281.50
2023-05-13T08:33:32.874Z,102279.97
2023-05-13T08:36:00.353Z,102272.91
2023-05-13T08:38:26.768Z,102280.13
2023-05-13T08:40:53.279Z,102277.53
2023-05-13T08:43:20.265Z,102276.97
2023-05-13T08:45:47.937Z,102276.16
2023-05-13T08:48:18.812Z,102269.91
2023-05-13T08:50:45.686Z,102273.63
2023-05-13T08:53:12.967Z,102273.69
2023-05-13T08:55:42.705Z,102275.97
2023-05-13T08:58:09.181Z,102281.47
2023-05-13T09:00:35.846Z,102276.63
2023-05-13T09:03:02.723Z,102269.53
2023-05-13T09:05:29.382Z,102274.19
2023-05-13T09:07:56.423Z,102271.53
2023-05-13T09:10:23.033Z,102274.16
2023-05-13T09:12:51.716Z,102271.16
2023-05-13T09:15:19.410Z,102271.97
2023-05-13T09:17:52.497Z,102277.22
2023-05-13T09:20:20.185Z,102271.97
2023-05-13T09:22:48.601Z,102273.19
2023-05-13T09:25:16.829Z,102274.81
2023-05-13T09:27:47.932Z,102274.53
2023-05-13T09:30:14.688Z,102273.38
2023-05-13T09:32:42.255Z,102280.44
2023-05-13T09:35:16.906Z,102274.88
2023-05-13T09:37:47.746Z,102274.13
2023-05-13T09:40:16.206Z,102265.22
2023-05-13T09:42:46.328Z,102274.53
2023-05-13T09:45:14.181Z,102278.59
2023-05-13T09:47:41.307Z,102276.47
2023-05-13T09:50:09.433Z,102285.22
2023-05-13T09:52:37.721Z,102287.66
2023-05-13T09:55:06.617Z,102287.81
2023-05-13T09:57:33.228Z,102284.41
2023-05-13T10:00:00.844Z,102281.75
2023-05-13T10:02:28.167Z,102283.06
2023-05-13T10:04:55.890Z,102278.03
2023-05-13T10:07:25.855Z,102272.50
2023-05-13T10:09:54.367Z,102278.91
2023-05-13T10:12:22.658Z,102277.75
2023-05-13T10:14:51.972Z,102280.41
2023-05-13T10:17:23.340Z,102268.16
2023-05-13T10:19:54.116Z,102273.16
2023-05-13T10:22:31.618Z,102255.34
2023-05-13T10:24:59.574Z,102261.47
2023-05-13T10:27:28.961Z,102260.88
2023-05-13T10:29:57.278Z,102260.16
2023-05-13T10:32:29.736Z,102254.00
2023-05-13T10:35:09.488Z,102254.38
2023-05-13T10:38:01.730Z,102259.06
2023-05-13T10:40:50.038Z,102242.13
2023-05-13T10:43:21.691Z,102239.84
2023-05-13T10:45:50.070Z,102239.59
2023-05-13T10:48:17.825Z,102237.28
2023-05-13T10:51:01.208Z,102238.44
2023-05-13T10:53:32.220Z,102239.59
2023-05-13T10:56:00.054Z,102239.72
2023-05-13T10:58:31.197Z,102244.69
2023-05-13T11:01:18.910Z,102234.66
2023-05-13T11:03:56.385Z,102234.44
2023-05-13T11:06:40.977Z,102242.53
2023-05-13T11:09:15.664Z,102238.69
2023-05-13T11:11:43.024Z,102239.28
2023-05-13T11:14:16.894Z,102237.97
2023-05-13T11:17:10.398Z,102235.75
2023-05-13T11:19:39.170Z,102229.16
2023-05-13T11:22:12.128Z,102228.66
2023-05-13T11:24:39.530Z,102231.78
2023-05-13T11:27:15.432Z,102237.59
2023-05-13T11:29:55.475Z,102224.16
2023-05-13T11:32:58.287Z,102231.94
2023-05-13T11:35:27.174Z,102224.59
2023-05-13T11:37:56.902Z,102219.56
2023-05-13T11:40:27.759Z,102224.72
2023-05-13T11:42:54.786Z,102218.38
2023-05-13T11:45:24.183Z,102213.47
2023-05-13T11:47:52.147Z,102208.81
2023-05-13T11:50:23.112Z,102216.91
2023-05-13T11:52:57.930Z,102208.06
2023-05-13T11:55:36.089Z,102209.47
2023-05-13T11:58:03.515Z,102208.22
2023-05-13T12:00:31.843Z,102205.78
2023-05-13T12:02:59.073Z,102206.91
2023-05-13T12:05:26.697Z,102203.66
2023-05-13T12:07:57.174Z,102198.00
2023-05-13T12:10:24.634Z,102197.69
2023-05-13T12:12:51.139Z,102200.66
2023-05-13T12:15:19.132Z,102202.84
2023-05-13T12:17:46.045Z,102194.22
2023-05-13T12:20:17.517Z,102194.00
2023-05-13T12:22:43.877Z,102200.72
2023-05-13T12:25:32.800Z,102188.41
2023-05-13T12:27:59.977Z,102185.25
2023-05-13T12:30:26.524Z,102188.75
2023-05-13T12:32:58.804Z,102183.44
2023-05-13T12:35:25.258Z,102188.00
2023-05-13T12:38:05.309Z,102192.06
2023-05-13T12:40:32.226Z,102188.00
2023-05-13T12:42:59.484Z,102193.72
2023-05-13T12:45:30.548Z,102191.13
2023-05-13T12:47:57.669Z,102190.69
2023-05-13T12:50:24.652Z,102185.25
2023-05-13T12:52:51.851Z,102190.91
2023-05-13T12:55:18.368Z,102182.63
2023-05-13T12:57:55.196Z,102188.22
2023-05-13T13:00:21.798Z,102184.22
2023-05-13T13:02:48.387Z,102176.19
2023-05-13T13:05:14.883Z,102180.19
2023-05-13T13:07:42.265Z,102179.91
2023-05-13T13:10:09.380Z,102180.75
2023-05-13T13:12:35.890Z,102181.28
2023-05-13T13:15:02.397Z,102176.50
2023-05-13T13:17:28.863Z,102178.16
2023-05-13T13:19:55.359Z,102183.63
2023-05-13T13:22:21.815Z,102178.00
2023-05-13T13:24:48.266Z,102170.25
2023-05-13T13:27:14.722Z,102172.19
2023-05-13T13:29:41.110Z,102171.09
2023-05-13T13:32:07.965Z,102174.84
2023-05-13T13:34:34.453Z,102172.09
2023-05-13T13:37:01.002Z,102172.97
2023-05-13T13:39:27.444Z,102167.88
2023-05-13T13:41:53.864Z,102162.94
2023-05-13T13:44:20.320Z,102155.25
2023-05-13T13:46:46.726Z,102162.91
2023-05-13T13:49:23.325Z,102160.41
2023-05-13T13:51:50.489Z,102159.13
2023-05-13T13:54:16.887Z,102161.16
2023-05-13T13:56:43.366Z,102155.69
2023-05-13T13:59:09.832Z,102147.84
2023-05-13T14:01:36.334Z,102150.69
2023-05-13T14:04:17.344Z,102149.44
2023-05-13T14:06:44.505Z,102143.69
2023-05-13T14:09:11.129Z,102154.97
2023-05-13T14:11:37.622Z,102150.03
2023-05-13T14:14:04.546Z,102143.13
2023-05-13T14:16:31.072Z,102139.00
2023-05-13T14:18:57.621Z,102138.72
2023-05-13T14:21:24.178Z,102145.00
2023-05-13T14:23:50.706Z,102139.38
2023-05-13T14:26:17.177Z,102146.56
2023-05-13T14:28:43.852Z,102137.97
2023-05-13T14:31:10.636Z,102141.63
2023-05-13T14:33:37.197Z,102141.03
2023-05-13T14:36:03.861Z,102140.84
2023-05-13T14:38:31.177Z,102131.47
2023-05-13T14:40:58.275Z,102138.81
2023-05-13T14:43:25.121Z,102132.50
2023-05-13T14:45:51.684Z,102136.94
2023-05-13T14:48:19.184Z,102135.63
2023-05-13T14:50:46.351Z,102129.31
2023-05-13T14:53:12.983Z,102126.22
2023-05-13T14:55:39.475Z,102131.34
2023-05-13T14:58:08.943Z,102123.19
2023-05-13T15:00:38.887Z,102129.53
2023-05-13T15:03:05.993Z,102126.47
2023-05-13T15:05:32.562Z,102122.75
2023-05-13T15:07:59.698Z,102119.06
2023-05-13T15:10:26.394Z,102109.78
2023-05-13T15:12:52.823Z,102123.25
2023-05-13T15:15:19.324Z,102122.97
2023-05-13T15:17:45.813Z,102120.03
2023-05-13T15:20:12.603Z,102116.91
2023-05-13T15:22:39.016Z,102109.63
2023-05-13T15:25:05.861Z,102113.53
2023-05-13T15:27:32.303Z,102118.06
2023-05-13T15:29:58.694Z,102109.97
2023-05-13T15:32:25.072Z,102112.19
2023-05-13T15:34:51.520Z,102087.03
2023-05-13T15:37:17.930Z,102100.97
2023-05-13T15:39:44.665Z,102097.19
2023-05-13T15:42:11.136Z,102098.81
2023-05-13T15:44:37.622Z,102103.34
2023-05-13T15:47:06.112Z,102105.78
2023-05-13T15:49:33.288Z,102105.66
2023-05-13T15:52:00.465Z,102086.34
2023-05-13T15:54:26.908Z,102091.00
2023-05-13T15:56:55.509Z,102098.56
2023-05-13T15:59:22.316Z,102091.72
2023-05-13T16:01:49.072Z,102067.88
2023-05-13T16:04:16.145Z,102092.00
2023-05-13T16:06:42.654Z,102093.06
2023-05-13T16:09:09.275Z,102086.91
2023-05-13T16:11:35.862Z,102093.63
2023-05-13T16:14:02.300Z,102087.22
2023-05-13T16:16:28.739Z,102087.50
2023-05-13T16:18:55.274Z,102082.59
2023-05-13T16:21:21.896Z,102083.47
2023-05-13T16:23:48.407Z,102073.63
2023-05-13T16:26:14.885Z,102074.44
2023-05-13T16:28:41.334Z,102078.44
2023-05-13T16:31:07.795Z,102078.22
2023-05-13T16:33:34.932Z,102088.09
2023-05-13T16:36:01.457Z,102080.88
2023-05-13T16:38:28.117Z,102081.09
2023-05-13T16:40:54.612Z,102083.50
2023-05-13T16:43:21.172Z,102076.97
2023-05-13T16:45:47.603Z,102075.25
2023-05-13T16:48:14.501Z,102076.34
2023-05-13T16:50:41.226Z,102066.09
2023-05-13T16:53:07.759Z,102068.16
2023-05-13T16:55:34.236Z,102072.41
2023-05-13T16:58:01.491Z,102065.16
2023-05-13T17:00:27.942Z,102070.16
2023-05-13T17:02:54.517Z,102069.69
2023-05-13T17:05:21.325Z,102066.75
2023-05-13T17:07:47.804Z,102074.84
2023-05-13T17:10:14.235Z,102076.38
2023-05-13T17:12:40.868Z,102075.94
2023-05-13T17:15:07.610Z,102078.00
2023-05-13T17:17:34.098Z,102079.00
2023-05-13T17:20:00.674Z,102074.69
2023-05-13T17:22:27.075Z,102072.13
2023-05-13T17:24:53.539Z,102071.53
2023-05-13T17:27:19.989Z,102072.25
2023-05-13T17:29:46.532Z,102075.56
2023-05-13T17:32:13.168Z,102074.69
2023-05-13T17:34:39.723Z,102069.53
2023-05-13T17:37:06.169Z,102078.22
2023-05-13T17:39:32.685Z,102069.00
2023-05-13T17:41:59.190Z,102074.50
2023-05-13T17:44:25.677Z,102077.28
2023-05-13T17:46:52.135Z,102072.88
2023-05-13T17:51:45.151Z,102078.19
2023-05-13T17:54:11.620Z,102078.94
2023-05-13T17:56:38.122Z,102079.97
2023-05-13T17:59:04.601Z,102076.19
2023-05-13T18:01:31.053Z,102079.50
2023-05-13T18:03:57.649Z,102082.94
2023-05-13T18:06:24.062Z,102081.97
2023-05-13T18:08:50.569Z,102086.09
2023-05-13T18:11:16.968Z,102078.19
2023-05-13T18:13:43.375Z,102071.13
2023-05-13T18:16:10.916Z,102079.06
2023-05-13T18:18:37.368Z,102079.91
2023-05-13T18:21:03.950Z,102077.72
2023-05-13T18:23:30.533Z,102082.63
2023-05-13T18:25:56.984Z,102088.94
2023-05-13T18:28:23.473Z,102095.47
2023-05-13T18:30:50.011Z,102096.91
2023-05-13T18:33:16.475Z,102096.28
2023-05-13T18:35:43.060Z,102085.75
2023-05-13T18:38:09.527Z,102098.31
2023-05-13T18:40:36.038Z,102094.66
2023-05-13T18:43:02.459Z,102108.63
2023-05-13T18:45:29.062Z,102103.56
2023-05-13T18:47:55.621Z,102092.19
2023-05-13T18:50:22.442Z,102110.63
2023-05-13T18:52:49.406Z,102109.16
2023-05-13T18:55:16.384Z,102112.53
2023-05-13T18:57:42.800Z,102112.72
2023-05-13T19:00:09.422Z,102111.03
2023-05-13T19:02:36.043Z,102110.19
2023-05-13T19:05:02.866Z,102107.94
2023-05-13T19:07:29.332Z,102109.28
2023-05-13T19:09:56.021Z,102115.75
2023-05-13T19:12:22.405Z,102119.53
2023-05-13T19:14:48.874Z,102119.28
2023-05-13T19:17:15.685Z,102114.38
2023-05-13T19:19:43.004Z,102121.16
2023-05-13T19:22:09.409Z,102122.91
2023-05-13T19:24:36.137Z,102124.13
2023-05-13T19:27:02.791Z,102126.41
2023-05-13T19:29:29.293Z,102138.44
2023-05-13T19:31:55.685Z,102135.19
2023-05-13T19:34:22.166Z,102130.88
2023-05-13T19:36:48.580Z,102139.31
2023-05-13T19:39:15.079Z,102130.97
2023-05-13T19:41:41.566Z,102140.78
2023-05-13T19:44:07.995Z,102135.47
2023-05-13T19:46:34.511Z,102134.31
2023-05-13T19:49:00.987Z,102138.47
2023-05-13T19:51:27.444Z,102139.59
2023-05-13T19:53:53.886Z,102137.84
2023-05-13T19:56:21.085Z,102136.25
2023-05-13T19:58:47.579Z,102146.47
2023-05-13T20:01:14.902Z,102135.81
2023-05-13T20:03:41.722Z,102142.22
2023-05-13T20:06:08.311Z,102148.84
2023-05-13T20:08:35.701Z,102147.66
2023-05-13T20:11:02.202Z,102152.03
2023-05-13T20:13:28.722Z,102151.59
2023-05-13T20:15:55.172Z,102157.81
2023-05-13T20:18:21.995Z,102151.66
2023-05-13T20:20:48.459Z,102151.75
2023-05-13T20:23:14.916Z,102151.53
2023-05-13T20:25:41.469Z,102147.50
2023-05-13T20:28:07.932Z,102152.13
2023-05-13T20:30:34.351Z,102150.31
2023-05-13T20:33:01.004Z,102157.06
2023-05-13T20:35:27.484Z,102142.88
2023-05-13T20:37:54.389Z,102159.53
2023-05-13T20:40:20.998Z,102165.41
2023-05-13T20:42:47.847Z,102168.59
2023-05-13T20:45:14.346Z,102169.38
2023-05-13T20:47:40.836Z,102173.19
2023-05-13T20:50:07.906Z,102174.69
2023-05-13T20:52:34.473Z,102169.34
2023-05-13T20:55:01.096Z,102168.09
2023-05-13T20:57:27.495Z,102160.72
2023-05-13T20:59:53.945Z,102167.16
2023-05-13T21:02:20.465Z,102170.63
2023-05-13T21:04:46.957Z,102169.34
2023-05-13T21:07:13.534Z,102163.63
2023-05-13T21:09:40.113Z,102166.97
2023-05-13T21:12:06.943Z,102148.50
2023-05-13T21:14:33.426Z,102160.41
2023-05-13T21:17:03.064Z,102160.16
2023-05-13T21:19:30.066Z,102159.50
2023-05-13T21:21:56.825Z,102161.19
2023-05-13T21:24:23.308Z,102160.34
2023-05-13T21:26:49.882Z,102160.53
2023-05-13T21:29:18.515Z,102153.59
2023-05-13T21:31:46.053Z,102161.22
2023-05-13T21:34:12.704Z,102158.94
2023-05-13T21:36:39.273Z,102165.50
2023-05-13T21:39:06.815Z,102158.13
2023-05-13T21:41:33.299Z,102164.38
2023-05-13T21:43:59.685Z,102154.56
2023-05-13T21:46:26.072Z,102153.44
2023-05-13T21:48:52.634Z,102148.50
2023-05-13T21:51:19.165Z,102155.63
2023-05-13T21:53:45.611Z,102156.75
2023-05-13T21:56:12.009Z,102157.78
2023-05-13T21:58:38.496Z,102165.16
2023-05-13T22:01:04.957Z,102157.63
2023-05-13T22:03:32.222Z,102148.81
2023-05-13T22:05:58.734Z,102154.72
2023-05-13T22:08:25.212Z,102155.25
2023-05-13T22:10:51.674Z,102151.63
2023-05-13T22:13:21.380Z,102143.13
2023-05-13T22:15:48.776Z,102156.88
2023-05-13T22:18:15.494Z,102152.81
2023-05-13T22:20:42.107Z,102148.91
2023-05-13T22:23:08.488Z,102157.44
2023-05-13T22:25:34.882Z,102157.28
2023-05-13T22:28:01.384Z,102155.31
2023-05-13T22:30:27.822Z,102153.38
2023-05-13T22:32:55.744Z,102149.44
2023-05-13T22:35:22.318Z,102146.81
2023-05-13T22:37:50.541Z,102141.28
2023-05-13T22:40:17.087Z,102148.28
2023-05-13T22:42:43.653Z,102136.22
2023-05-13T22:45:10.730Z,102147.00
2023-05-13T22:47:37.197Z,102148.47
2023-05-13T22:50:04.594Z,102150.13
2023-05-13T22:52:30.972Z,102146.81
2023-05-13T22:54:57.347Z,102143.88
2023-05-13T22:57:23.844Z,102142.44
2023-05-13T22:59:50.311Z,102136.03
2023-05-13T23:02:16.785Z,102137.00
2023-05-13T23:04:43.196Z,102127.34
2023-05-13T23:07:09.643Z,102138.00
2023-05-13T23:09:36.196Z,102130.97
2023-05-13T23:12:02.702Z,102131.78
2023-05-13T23:14:30.043Z,102135.38
2023-05-13T23:16:56.540Z,102133.41
2023-05-13T23:19:24.587Z,102128.34
2023-05-13T23:21:51.138Z,102116.72
2023-05-13T23:24:17.784Z,102113.31
2023-05-13T23:26:47.042Z,102129.47
2023-05-13T23:29:13.850Z,102124.56
2023-05-13T23:31:40.579Z,102115.59
2023-05-13T23:34:07.949Z,102117.88
2023-05-13T23:36:34.488Z,102119.66
2023-05-13T23:39:01.029Z,102123.25
2023-05-13T23:41:27.457Z,102118.38
2023-05-13T23:43:53.850Z,102107.25
2023-05-13T23:46:20.383Z,102119.69
2023-05-13T23:48:46.921Z,102118.19
2023-05-13T23:51:13.353Z,102118.69
2023-05-13T23:53:39.772Z,102109.38
2023-05-13T23:56:06.328Z,102108.72
2023-05-13T23:58:32.813Z,102107.91
